首页
METAR-TAF:

METAR-TAF

机场 :

Rocky Mount-Wilson Regional Airport

Rocky Mount, 北卡罗来纳州, 美国

纬度: 35-51-18N, 经度: 077-53-35W, 海拔: 49米

当前天气观测

该预报发布于1小时和2分钟前的22:53 UTC
风速4节,风向西
温度 15°C
湿度 48%
气压 1010 hPa
能見度: 16.1公里
天空无云

METAR: KRWI 172253Z AUTO 27004KT 10SM CLR 15/04 A2982 RMK AO2 SLP098 T01500039

时间: 19:55 (23:55 UTC)

预报

该预报发布于35分钟前的23:20 UTC
预报有效从18日的 00点(UTC)到 18日的 24点(UTC)
风速6节,风向西北
能見度: 10公里
天空无云

TAF: KRWI 172320Z 1800/1824 31006KT P6SM SKC

超过4000个机场的气象观测和天气预报(METAR&TAF报告)。

可查询的气象台以黄色和红色小点在地图上表示。

将鼠标移到小点上方,可查看气象台名称。

然后点击查看天气观测和预报。

如需切换地图:点击带黑十字的绿色按钮放大地图;点击带横线的绿色按钮缩小地图;或者点击绿色箭头查看邻近地区的地图。


METAR-TAF: